sensor_id;sensor_type;location;lat;lon;timestamp;temperature;humidity
40622;DHT22;26324;52.040;11.528;2023-05-07T00:00:09;10.90;81.40
40622;DHT22;26324;52.040;11.528;2023-05-07T00:02:38;11.00;81.50
40622;DHT22;26324;52.040;11.528;2023-05-07T00:05:06;11.00;81.50
40622;DHT22;26324;52.040;11.528;2023-05-07T00:07:34;10.90;81.60
40622;DHT22;26324;52.040;11.528;2023-05-07T00:10:03;10.90;81.50
40622;DHT22;26324;52.040;11.528;2023-05-07T00:12:30;10.80;81.40
40622;DHT22;26324;52.040;11.528;2023-05-07T00:15:02;10.80;81.10
40622;DHT22;26324;52.040;11.528;2023-05-07T00:17:30;10.80;81.20
40622;DHT22;26324;52.040;11.528;2023-05-07T00:19:57;10.80;81.30
40622;DHT22;26324;52.040;11.528;2023-05-07T00:22:24;10.90;81.40
40622;DHT22;26324;52.040;11.528;2023-05-07T00:24:52;10.90;81.00
40622;DHT22;26324;52.040;11.528;2023-05-07T00:27:19;10.80;80.60
40622;DHT22;26324;52.040;11.528;2023-05-07T00:29:46;10.70;81.20
40622;DHT22;26324;52.040;11.528;2023-05-07T00:32:14;10.70;81.10
40622;DHT22;26324;52.040;11.528;2023-05-07T00:34:42;10.70;81.10
40622;DHT22;26324;52.040;11.528;2023-05-07T00:37:09;10.50;81.00
40622;DHT22;26324;52.040;11.528;2023-05-07T00:39:37;10.50;81.10
40622;DHT22;26324;52.040;11.528;2023-05-07T00:42:04;10.60;81.20
40622;DHT22;26324;52.040;11.528;2023-05-07T00:44:31;10.60;81.40
40622;DHT22;26324;52.040;11.528;2023-05-07T00:47:02;10.50;81.40
40622;DHT22;26324;52.040;11.528;2023-05-07T00:49:39;10.50;81.10
40622;DHT22;26324;52.040;11.528;2023-05-07T00:52:07;10.60;81.30
40622;DHT22;26324;52.040;11.528;2023-05-07T00:54:36;10.60;81.40
40622;DHT22;26324;52.040;11.528;2023-05-07T00:57:03;10.60;81.30
40622;DHT22;26324;52.040;11.528;2023-05-07T00:59:32;10.50;81.30
40622;DHT22;26324;52.040;11.528;2023-05-07T01:01:59;10.40;81.20
40622;DHT22;26324;52.040;11.528;2023-05-07T01:04:27;10.30;81.20
40622;DHT22;26324;52.040;11.528;2023-05-07T01:06:55;10.30;81.20
40622;DHT22;26324;52.040;11.528;2023-05-07T01:09:24;10.30;81.30
40622;DHT22;26324;52.040;11.528;2023-05-07T01:11:52;10.40;81.20
40622;DHT22;26324;52.040;11.528;2023-05-07T01:14:20;10.50;81.00
40622;DHT22;26324;52.040;11.528;2023-05-07T01:16:48;10.40;80.80
40622;DHT22;26324;52.040;11.528;2023-05-07T01:19:20;10.50;80.40
40622;DHT22;26324;52.040;11.528;2023-05-07T01:21:48;10.50;80.20
40622;DHT22;26324;52.040;11.528;2023-05-07T01:24:18;10.50;79.80
40622;DHT22;26324;52.040;11.528;2023-05-07T01:26:45;10.40;79.80
40622;DHT22;26324;52.040;11.528;2023-05-07T01:29:15;10.40;79.60
40622;DHT22;26324;52.040;11.528;2023-05-07T01:31:44;10.30;79.40
40622;DHT22;26324;52.040;11.528;2023-05-07T01:34:13;10.30;78.90
40622;DHT22;26324;52.040;11.528;2023-05-07T01:36:43;10.20;78.80
40622;DHT22;26324;52.040;11.528;2023-05-07T01:39:12;10.10;78.20
40622;DHT22;26324;52.040;11.528;2023-05-07T01:41:39;10.20;78.40
40622;DHT22;26324;52.040;11.528;2023-05-07T01:44:07;10.10;78.30
40622;DHT22;26324;52.040;11.528;2023-05-07T01:46:36;10.30;78.30
40622;DHT22;26324;52.040;11.528;2023-05-07T01:49:03;10.20;78.10
40622;DHT22;26324;52.040;11.528;2023-05-07T01:51:31;10.20;78.30
40622;DHT22;26324;52.040;11.528;2023-05-07T01:53:58;10.20;78.00
40622;DHT22;26324;52.040;11.528;2023-05-07T01:56:26;10.10;78.40
40622;DHT22;26324;52.040;11.528;2023-05-07T01:58:54;10.10;78.50
40622;DHT22;26324;52.040;11.528;2023-05-07T02:01:21;10.10;78.50
40622;DHT22;26324;52.040;11.528;2023-05-07T02:03:49;10.10;78.70
40622;DHT22;26324;52.040;11.528;2023-05-07T02:06:22;10.10;78.40
40622;DHT22;26324;52.040;11.528;2023-05-07T02:08:53;10.10;78.70
40622;DHT22;26324;52.040;11.528;2023-05-07T02:11:21;10.10;78.80
40622;DHT22;26324;52.040;11.528;2023-05-07T02:13:48;10.10;78.40
40622;DHT22;26324;52.040;11.528;2023-05-07T02:16:15;10.00;79.00
40622;DHT22;26324;52.040;11.528;2023-05-07T02:18:43;9.90;79.40
40622;DHT22;26324;52.040;11.528;2023-05-07T02:21:10;9.80;79.30
40622;DHT22;26324;52.040;11.528;2023-05-07T02:23:38;9.90;79.60
40622;DHT22;26324;52.040;11.528;2023-05-07T02:26:05;9.90;79.50
40622;DHT22;26324;52.040;11.528;2023-05-07T02:28:33;9.90;79.80
40622;DHT22;26324;52.040;11.528;2023-05-07T02:31:04;9.90;79.50
40622;DHT22;26324;52.040;11.528;2023-05-07T02:33:32;9.90;79.60
40622;DHT22;26324;52.040;11.528;2023-05-07T02:36:07;10.00;79.70
40622;DHT22;26324;52.040;11.528;2023-05-07T02:38:36;10.00;79.70
40622;DHT22;26324;52.040;11.528;2023-05-07T02:41:04;10.00;79.60
40622;DHT22;26324;52.040;11.528;2023-05-07T02:43:32;9.90;79.70
40622;DHT22;26324;52.040;11.528;2023-05-07T02:46:07;9.90;79.60
40622;DHT22;26324;52.040;11.528;2023-05-07T02:48:38;10.10;79.50
40622;DHT22;26324;52.040;11.528;2023-05-07T02:51:05;10.10;79.30
40622;DHT22;26324;52.040;11.528;2023-05-07T02:53:34;10.10;79.30
40622;DHT22;26324;52.040;11.528;2023-05-07T02:56:02;10.10;79.50
40622;DHT22;26324;52.040;11.528;2023-05-07T02:58:30;10.10;79.30
40622;DHT22;26324;52.040;11.528;2023-05-07T03:00:58;10.10;79.30
40622;DHT22;26324;52.040;11.528;2023-05-07T03:03:32;10.10;79.20
40622;DHT22;26324;52.040;11.528;2023-05-07T03:05:59;10.10;78.90
40622;DHT22;26324;52.040;11.528;2023-05-07T03:08:27;10.10;78.90
40622;DHT22;26324;52.040;11.528;2023-05-07T03:10:54;10.10;79.00
40622;DHT22;26324;52.040;11.528;2023-05-07T03:13:22;10.20;78.90
40622;DHT22;26324;52.040;11.528;2023-05-07T03:15:49;10.10;79.50
40622;DHT22;26324;52.040;11.528;2023-05-07T03:18:16;10.10;79.70
40622;DHT22;26324;52.040;11.528;2023-05-07T03:20:44;10.20;79.90
40622;DHT22;26324;52.040;11.528;2023-05-07T03:23:11;10.10;79.90
40622;DHT22;26324;52.040;11.528;2023-05-07T03:25:39;10.10;79.90
40622;DHT22;26324;52.040;11.528;2023-05-07T03:28:06;10.10;79.60
40622;DHT22;26324;52.040;11.528;2023-05-07T03:30:40;10.10;79.80
40622;DHT22;26324;52.040;11.528;2023-05-07T03:33:07;10.10;80.00
40622;DHT22;26324;52.040;11.528;2023-05-07T03:35:35;10.10;80.30
40622;DHT22;26324;52.040;11.528;2023-05-07T03:38:02;10.10;80.30
40622;DHT22;26324;52.040;11.528;2023-05-07T03:40:33;10.00;80.20
40622;DHT22;26324;52.040;11.528;2023-05-07T03:43:01;10.00;80.40
40622;DHT22;26324;52.040;11.528;2023-05-07T03:45:30;9.90;80.30
40622;DHT22;26324;52.040;11.528;2023-05-07T03:48:07;9.90;80.80
40622;DHT22;26324;52.040;11.528;2023-05-07T03:50:35;9.90;80.60
40622;DHT22;26324;52.040;11.528;2023-05-07T03:53:03;10.00;80.50
40622;DHT22;26324;52.040;11.528;2023-05-07T03:55:33;9.90;80.60
40622;DHT22;26324;52.040;11.528;2023-05-07T03:58:00;10.00;80.50
40622;DHT22;26324;52.040;11.528;2023-05-07T04:00:28;10.00;80.20
40622;DHT22;26324;52.040;11.528;2023-05-07T04:02:58;9.90;80.10
40622;DHT22;26324;52.040;11.528;2023-05-07T04:05:29;10.00;80.30
40622;DHT22;26324;52.040;11.528;2023-05-07T04:08:01;10.00;80.30
40622;DHT22;26324;52.040;11.528;2023-05-07T04:10:38;9.90;80.30
40622;DHT22;26324;52.040;11.528;2023-05-07T04:13:09;9.90;79.70
40622;DHT22;26324;52.040;11.528;2023-05-07T04:15:37;9.80;79.60
40622;DHT22;26324;52.040;11.528;2023-05-07T04:18:08;9.80;79.80
40622;DHT22;26324;52.040;11.528;2023-05-07T04:20:37;9.90;79.80
40622;DHT22;26324;52.040;11.528;2023-05-07T04:23:08;9.90;79.80
40622;DHT22;26324;52.040;11.528;2023-05-07T04:25:36;10.00;79.80
40622;DHT22;26324;52.040;11.528;2023-05-07T04:28:30;10.00;79.80
40622;DHT22;26324;52.040;11.528;2023-05-07T04:30:57;10.00;79.60
40622;DHT22;26324;52.040;11.528;2023-05-07T04:33:25;10.10;79.50
40622;DHT22;26324;52.040;11.528;2023-05-07T04:35:56;10.10;79.40
40622;DHT22;26324;52.040;11.528;2023-05-07T04:38:24;10.00;79.30
40622;DHT22;26324;52.040;11.528;2023-05-07T04:40:54;10.00;79.30
40622;DHT22;26324;52.040;11.528;2023-05-07T04:43:24;10.00;79.10
40622;DHT22;26324;52.040;11.528;2023-05-07T04:45:52;10.00;79.40
40622;DHT22;26324;52.040;11.528;2023-05-07T04:48:22;9.90;79.30
40622;DHT22;26324;52.040;11.528;2023-05-07T04:50:51;10.00;79.60
40622;DHT22;26324;52.040;11.528;2023-05-07T04:53:19;10.00;79.60
40622;DHT22;26324;52.040;11.528;2023-05-07T04:55:48;10.00;79.50
40622;DHT22;26324;52.040;11.528;2023-05-07T04:58:16;10.00;79.10
40622;DHT22;26324;52.040;11.528;2023-05-07T05:00:58;10.00;79.20
40622;DHT22;26324;52.040;11.528;2023-05-07T05:03:25;10.10;79.30
40622;DHT22;26324;52.040;11.528;2023-05-07T05:05:53;10.10;79.50
40622;DHT22;26324;52.040;11.528;2023-05-07T05:08:22;10.00;79.50
40622;DHT22;26324;52.040;11.528;2023-05-07T05:10:49;10.00;79.40
40622;DHT22;26324;52.040;11.528;2023-05-07T05:13:17;10.00;79.30
40622;DHT22;26324;52.040;11.528;2023-05-07T05:15:46;10.10;79.50
40622;DHT22;26324;52.040;11.528;2023-05-07T05:18:13;10.10;79.40
40622;DHT22;26324;52.040;11.528;2023-05-07T05:20:40;10.00;79.40
40622;DHT22;26324;52.040;11.528;2023-05-07T05:23:08;10.10;79.50
40622;DHT22;26324;52.040;11.528;2023-05-07T05:25:36;10.10;79.40
40622;DHT22;26324;52.040;11.528;2023-05-07T05:28:04;10.10;79.20
40622;DHT22;26324;52.040;11.528;2023-05-07T05:30:33;10.10;79.10
40622;DHT22;26324;52.040;11.528;2023-05-07T05:33:01;10.10;78.90
40622;DHT22;26324;52.040;11.528;2023-05-07T05:35:29;10.10;79.10
40622;DHT22;26324;52.040;11.528;2023-05-07T05:37:58;10.10;79.00
40622;DHT22;26324;52.040;11.528;2023-05-07T05:40:26;10.10;78.90
40622;DHT22;26324;52.040;11.528;2023-05-07T05:43:02;10.10;78.90
40622;DHT22;26324;52.040;11.528;2023-05-07T05:45:31;10.10;78.70
40622;DHT22;26324;52.040;11.528;2023-05-07T05:48:00;10.10;78.50
40622;DHT22;26324;52.040;11.528;2023-05-07T05:50:29;10.10;78.80
40622;DHT22;26324;52.040;11.528;2023-05-07T05:52:58;10.10;78.50
40622;DHT22;26324;52.040;11.528;2023-05-07T05:55:28;10.20;78.20
40622;DHT22;26324;52.040;11.528;2023-05-07T05:57:56;10.20;78.30
40622;DHT22;26324;52.040;11.528;2023-05-07T06:00:23;10.30;78.10
40622;DHT22;26324;52.040;11.528;2023-05-07T06:02:58;10.20;77.70
40622;DHT22;26324;52.040;11.528;2023-05-07T06:05:27;10.10;77.60
40622;DHT22;26324;52.040;11.528;2023-05-07T06:07:56;10.00;78.00
40622;DHT22;26324;52.040;11.528;2023-05-07T06:10:25;9.90;78.40
40622;DHT22;26324;52.040;11.528;2023-05-07T06:12:54;9.90;78.40
40622;DHT22;26324;52.040;11.528;2023-05-07T06:15:24;9.90;78.80
40622;DHT22;26324;52.040;11.528;2023-05-07T06:17:52;10.00;78.80
40622;DHT22;26324;52.040;11.528;2023-05-07T06:20:19;10.10;78.80
40622;DHT22;26324;52.040;11.528;2023-05-07T06:22:47;10.20;78.80
40622;DHT22;26324;52.040;11.528;2023-05-07T06:25:16;10.20;78.60
40622;DHT22;26324;52.040;11.528;2023-05-07T06:27:43;10.30;78.20
40622;DHT22;26324;52.040;11.528;2023-05-07T06:30:11;10.40;77.90
40622;DHT22;26324;52.040;11.528;2023-05-07T06:32:40;10.50;78.10
40622;DHT22;26324;52.040;11.528;2023-05-07T06:35:08;10.50;77.60
40622;DHT22;26324;52.040;11.528;2023-05-07T06:37:38;10.50;77.40
40622;DHT22;26324;52.040;11.528;2023-05-07T06:40:08;10.40;77.40
40622;DHT22;26324;52.040;11.528;2023-05-07T06:42:38;10.50;77.60
40622;DHT22;26324;52.040;11.528;2023-05-07T06:45:27;10.40;77.40
40622;DHT22;26324;52.040;11.528;2023-05-07T06:47:55;10.40;77.40
40622;DHT22;26324;52.040;11.528;2023-05-07T06:50:23;10.40;77.30
40622;DHT22;26324;52.040;11.528;2023-05-07T06:52:55;10.40;77.30
40622;DHT22;26324;52.040;11.528;2023-05-07T06:55:22;10.50;77.20
40622;DHT22;26324;52.040;11.528;2023-05-07T06:57:50;10.60;77.30
40622;DHT22;26324;52.040;11.528;2023-05-07T07:00:19;10.60;77.00
40622;DHT22;26324;52.040;11.528;2023-05-07T07:02:51;10.60;77.30
40622;DHT22;26324;52.040;11.528;2023-05-07T07:05:21;10.60;77.20
40622;DHT22;26324;52.040;11.528;2023-05-07T07:07:48;10.50;77.30
40622;DHT22;26324;52.040;11.528;2023-05-07T07:10:22;10.60;77.50
40622;DHT22;26324;52.040;11.528;2023-05-07T07:12:51;10.60;77.60
40622;DHT22;26324;52.040;11.528;2023-05-07T07:15:20;10.60;77.70
40622;DHT22;26324;52.040;11.528;2023-05-07T07:17:49;10.50;77.60
40622;DHT22;26324;52.040;11.528;2023-05-07T07:20:16;10.40;77.80
40622;DHT22;26324;52.040;11.528;2023-05-07T07:22:45;10.30;78.50
40622;DHT22;26324;52.040;11.528;2023-05-07T07:25:12;10.40;78.30
40622;DHT22;26324;52.040;11.528;2023-05-07T07:27:40;10.40;78.40
40622;DHT22;26324;52.040;11.528;2023-05-07T07:30:08;10.50;78.00
40622;DHT22;26324;52.040;11.528;2023-05-07T07:32:39;10.50;77.70
40622;DHT22;26324;52.040;11.528;2023-05-07T07:35:06;10.50;77.40
40622;DHT22;26324;52.040;11.528;2023-05-07T07:37:35;10.50;77.80
40622;DHT22;26324;52.040;11.528;2023-05-07T07:40:02;10.50;77.90
40622;DHT22;26324;52.040;11.528;2023-05-07T07:42:32;10.70;77.80
40622;DHT22;26324;52.040;11.528;2023-05-07T07:45:00;10.70;77.90
40622;DHT22;26324;52.040;11.528;2023-05-07T07:47:31;10.80;77.60
40622;DHT22;26324;52.040;11.528;2023-05-07T07:49:59;10.80;77.30
40622;DHT22;26324;52.040;11.528;2023-05-07T07:52:26;10.90;77.30
40622;DHT22;26324;52.040;11.528;2023-05-07T07:54:55;11.10;77.10
40622;DHT22;26324;52.040;11.528;2023-05-07T07:57:22;11.10;76.00
40622;DHT22;26324;52.040;11.528;2023-05-07T07:59:50;11.10;76.60
40622;DHT22;26324;52.040;11.528;2023-05-07T08:02:18;11.10;76.10
40622;DHT22;26324;52.040;11.528;2023-05-07T08:04:46;11.20;76.40
40622;DHT22;26324;52.040;11.528;2023-05-07T08:07:13;11.30;74.90
40622;DHT22;26324;52.040;11.528;2023-05-07T08:09:44;11.40;74.60
40622;DHT22;26324;52.040;11.528;2023-05-07T08:12:11;11.50;74.30
40622;DHT22;26324;52.040;11.528;2023-05-07T08:14:39;11.50;74.10
40622;DHT22;26324;52.040;11.528;2023-05-07T08:17:07;11.40;74.00
40622;DHT22;26324;52.040;11.528;2023-05-07T08:19:37;11.30;74.10
40622;DHT22;26324;52.040;11.528;2023-05-07T08:22:07;11.20;74.50
40622;DHT22;26324;52.040;11.528;2023-05-07T08:24:35;11.20;75.10
40622;DHT22;26324;52.040;11.528;2023-05-07T08:27:02;11.10;74.30
40622;DHT22;26324;52.040;11.528;2023-05-07T08:29:30;11.10;74.70
40622;DHT22;26324;52.040;11.528;2023-05-07T08:31:59;11.20;74.50
40622;DHT22;26324;52.040;11.528;2023-05-07T08:34:26;11.30;74.80
40622;DHT22;26324;52.040;11.528;2023-05-07T08:36:55;11.40;75.10
40622;DHT22;26324;52.040;11.528;2023-05-07T08:39:24;11.30;74.00
40622;DHT22;26324;52.040;11.528;2023-05-07T08:41:55;11.20;74.80
40622;DHT22;26324;52.040;11.528;2023-05-07T08:44:26;11.20;74.80
40622;DHT22;26324;52.040;11.528;2023-05-07T08:46:58;11.20;75.40
40622;DHT22;26324;52.040;11.528;2023-05-07T08:49:30;11.30;74.70
40622;DHT22;26324;52.040;11.528;2023-05-07T08:51:59;11.50;74.80
40622;DHT22;26324;52.040;11.528;2023-05-07T08:54:27;11.60;74.30
40622;DHT22;26324;52.040;11.528;2023-05-07T08:56:56;11.70;74.10
40622;DHT22;26324;52.040;11.528;2023-05-07T08:59:24;11.70;74.20
40622;DHT22;26324;52.040;11.528;2023-05-07T09:01:52;11.80;74.00
40622;DHT22;26324;52.040;11.528;2023-05-07T09:04:20;11.90;73.50
40622;DHT22;26324;52.040;11.528;2023-05-07T09:06:47;11.90;73.40
40622;DHT22;26324;52.040;11.528;2023-05-07T09:09:17;11.90;73.40
40622;DHT22;26324;52.040;11.528;2023-05-07T09:11:46;11.80;74.10
40622;DHT22;26324;52.040;11.528;2023-05-07T09:14:17;11.80;74.50
40622;DHT22;26324;52.040;11.528;2023-05-07T09:16:46;11.90;73.70
40622;DHT22;26324;52.040;11.528;2023-05-07T09:19:14;11.90;73.60
40622;DHT22;26324;52.040;11.528;2023-05-07T09:21:45;12.00;73.90
40622;DHT22;26324;52.040;11.528;2023-05-07T09:24:15;12.10;74.30
40622;DHT22;26324;52.040;11.528;2023-05-07T09:26:43;12.10;73.30
40622;DHT22;26324;52.040;11.528;2023-05-07T09:29:11;12.10;74.10
40622;DHT22;26324;52.040;11.528;2023-05-07T09:31:39;12.10;73.80
40622;DHT22;26324;52.040;11.528;2023-05-07T09:34:11;12.10;73.30
40622;DHT22;26324;52.040;11.528;2023-05-07T09:36:41;12.20;74.00
40622;DHT22;26324;52.040;11.528;2023-05-07T09:39:09;12.20;73.80
40622;DHT22;26324;52.040;11.528;2023-05-07T09:41:46;12.20;73.40
40622;DHT22;26324;52.040;11.528;2023-05-07T09:44:21;12.30;73.80
40622;DHT22;26324;52.040;11.528;2023-05-07T09:46:53;12.20;73.60
40622;DHT22;26324;52.040;11.528;2023-05-07T09:49:29;12.30;73.80
40622;DHT22;26324;52.040;11.528;2023-05-07T09:52:04;12.40;73.30
40622;DHT22;26324;52.040;11.528;2023-05-07T09:54:40;12.30;73.30
40622;DHT22;26324;52.040;11.528;2023-05-07T09:57:11;12.30;73.60
40622;DHT22;26324;52.040;11.528;2023-05-07T09:59:42;12.50;73.70
40622;DHT22;26324;52.040;11.528;2023-05-07T10:02:14;12.50;73.10
40622;DHT22;26324;52.040;11.528;2023-05-07T10:04:52;12.20;73.10
40622;DHT22;26324;52.040;11.528;2023-05-07T10:07:24;12.00;74.30
40622;DHT22;26324;52.040;11.528;2023-05-07T10:09:57;12.00;74.70
40622;DHT22;26324;52.040;11.528;2023-05-07T10:12:36;12.20;74.40
40622;DHT22;26324;52.040;11.528;2023-05-07T10:15:16;12.30;73.90
40622;DHT22;26324;52.040;11.528;2023-05-07T10:17:48;12.30;73.70
40622;DHT22;26324;52.040;11.528;2023-05-07T10:20:17;12.40;72.90
40622;DHT22;26324;52.040;11.528;2023-05-07T10:22:48;12.50;72.70
40622;DHT22;26324;52.040;11.528;2023-05-07T10:25:30;12.60;72.30
40622;DHT22;26324;52.040;11.528;2023-05-07T10:28:05;12.80;71.40
40622;DHT22;26324;52.040;11.528;2023-05-07T10:30:48;12.80;71.50
40622;DHT22;26324;52.040;11.528;2023-05-07T10:33:25;12.50;72.20
40622;DHT22;26324;52.040;11.528;2023-05-07T10:36:00;12.30;72.50
40622;DHT22;26324;52.040;11.528;2023-05-07T10:38:29;12.10;72.70
40622;DHT22;26324;52.040;11.528;2023-05-07T10:40:59;12.30;73.00
40622;DHT22;26324;52.040;11.528;2023-05-07T10:43:42;12.40;72.90
40622;DHT22;26324;52.040;11.528;2023-05-07T10:46:15;12.20;72.80
40622;DHT22;26324;52.040;11.528;2023-05-07T10:52:19;12.30;73.70
40622;DHT22;26324;52.040;11.528;2023-05-07T10:57:44;12.50;73.20
40622;DHT22;26324;52.040;11.528;2023-05-07T11:03:09;12.90;72.20
40622;DHT22;26324;52.040;11.528;2023-05-07T11:05:43;12.80;70.40
40622;DHT22;26324;52.040;11.528;2023-05-07T11:08:20;12.50;70.50
40622;DHT22;26324;52.040;11.528;2023-05-07T11:11:13;12.50;71.10
40622;DHT22;26324;52.040;11.528;2023-05-07T11:13:49;12.20;71.00
40622;DHT22;26324;52.040;11.528;2023-05-07T11:16:25;12.30;71.40
40622;DHT22;26324;52.040;11.528;2023-05-07T11:19:03;12.30;71.40
40622;DHT22;26324;52.040;11.528;2023-05-07T11:21:38;12.50;71.40
40622;DHT22;26324;52.040;11.528;2023-05-07T11:24:21;12.60;71.60
40622;DHT22;26324;52.040;11.528;2023-05-07T11:26:54;12.70;71.10
40622;DHT22;26324;52.040;11.528;2023-05-07T11:29:23;12.80;70.70
40622;DHT22;26324;52.040;11.528;2023-05-07T11:31:59;12.90;69.60
40622;DHT22;26324;52.040;11.528;2023-05-07T11:34:32;12.90;70.00
40622;DHT22;26324;52.040;11.528;2023-05-07T11:37:00;13.10;69.00
40622;DHT22;26324;52.040;11.528;2023-05-07T11:39:47;13.10;69.30
40622;DHT22;26324;52.040;11.528;2023-05-07T11:42:34;13.10;68.90
40622;DHT22;26324;52.040;11.528;2023-05-07T11:45:05;13.30;69.90
40622;DHT22;26324;52.040;11.528;2023-05-07T11:47:33;13.50;69.20
40622;DHT22;26324;52.040;11.528;2023-05-07T11:50:05;13.70;68.90
40622;DHT22;26324;52.040;11.528;2023-05-07T11:52:34;13.80;68.00
40622;DHT22;26324;52.040;11.528;2023-05-07T11:55:02;13.70;68.20
40622;DHT22;26324;52.040;11.528;2023-05-07T11:57:33;13.60;69.20
40622;DHT22;26324;52.040;11.528;2023-05-07T12:00:02;13.60;68.60
40622;DHT22;26324;52.040;11.528;2023-05-07T12:02:40;13.80;69.00
40622;DHT22;26324;52.040;11.528;2023-05-07T12:05:09;14.00;67.30
40622;DHT22;26324;52.040;11.528;2023-05-07T12:07:37;14.10;67.60
40622;DHT22;26324;52.040;11.528;2023-05-07T12:10:05;14.20;66.60
40622;DHT22;26324;52.040;11.528;2023-05-07T12:12:46;13.90;66.20
40622;DHT22;26324;52.040;11.528;2023-05-07T12:15:18;13.60;67.30
40622;DHT22;26324;52.040;11.528;2023-05-07T12:17:49;13.60;67.60
40622;DHT22;26324;52.040;11.528;2023-05-07T12:20:17;13.60;67.60
40622;DHT22;26324;52.040;11.528;2023-05-07T12:22:46;13.60;66.80
40622;DHT22;26324;52.040;11.528;2023-05-07T12:25:19;13.60;67.10
40622;DHT22;26324;52.040;11.528;2023-05-07T12:27:51;13.70;67.80
40622;DHT22;26324;52.040;11.528;2023-05-07T12:30:19;13.90;66.80
40622;DHT22;26324;52.040;11.528;2023-05-07T12:32:46;13.90;66.60
40622;DHT22;26324;52.040;11.528;2023-05-07T12:35:14;13.90;66.00
40622;DHT22;26324;52.040;11.528;2023-05-07T12:37:41;13.80;66.90
40622;DHT22;26324;52.040;11.528;2023-05-07T12:40:10;13.60;65.30
40622;DHT22;26324;52.040;11.528;2023-05-07T12:42:39;13.60;66.70
40622;DHT22;26324;52.040;11.528;2023-05-07T12:45:11;13.60;67.10
40622;DHT22;26324;52.040;11.528;2023-05-07T12:47:39;13.60;67.50
40622;DHT22;26324;52.040;11.528;2023-05-07T12:50:07;13.60;67.80
40622;DHT22;26324;52.040;11.528;2023-05-07T12:52:34;13.60;67.70
40622;DHT22;26324;52.040;11.528;2023-05-07T12:55:09;13.60;66.70
40622;DHT22;26324;52.040;11.528;2023-05-07T12:57:42;13.80;67.80
40622;DHT22;26324;52.040;11.528;2023-05-07T13:00:10;14.20;67.10
40622;DHT22;26324;52.040;11.528;2023-05-07T13:02:39;14.50;65.60
40622;DHT22;26324;52.040;11.528;2023-05-07T13:05:07;14.50;63.60
40622;DHT22;26324;52.040;11.528;2023-05-07T13:07:35;14.40;64.50
40622;DHT22;26324;52.040;11.528;2023-05-07T13:10:04;14.60;64.00
40622;DHT22;26324;52.040;11.528;2023-05-07T13:12:32;14.70;63.50
40622;DHT22;26324;52.040;11.528;2023-05-07T13:14:59;14.70;62.90
40622;DHT22;26324;52.040;11.528;2023-05-07T13:17:27;14.60;63.40
40622;DHT22;26324;52.040;11.528;2023-05-07T13:19:54;14.50;63.70
40622;DHT22;26324;52.040;11.528;2023-05-07T13:22:21;14.70;64.10
40622;DHT22;26324;52.040;11.528;2023-05-07T13:24:49;15.10;65.10
40622;DHT22;26324;52.040;11.528;2023-05-07T13:27:16;15.40;63.60
40622;DHT22;26324;52.040;11.528;2023-05-07T13:29:43;15.50;63.20
40622;DHT22;26324;52.040;11.528;2023-05-07T13:32:10;15.70;62.50
40622;DHT22;26324;52.040;11.528;2023-05-07T13:34:38;15.70;61.10
40622;DHT22;26324;52.040;11.528;2023-05-07T13:37:06;15.50;62.10
40622;DHT22;26324;52.040;11.528;2023-05-07T13:39:37;15.20;63.00
40622;DHT22;26324;52.040;11.528;2023-05-07T13:42:04;15.20;62.40
40622;DHT22;26324;52.040;11.528;2023-05-07T13:44:32;15.20;61.90
40622;DHT22;26324;52.040;11.528;2023-05-07T13:46:59;15.10;62.10
40622;DHT22;26324;52.040;11.528;2023-05-07T13:49:27;15.20;62.00
40622;DHT22;26324;52.040;11.528;2023-05-07T13:51:55;15.30;62.50
40622;DHT22;26324;52.040;11.528;2023-05-07T13:54:22;15.50;61.50
40622;DHT22;26324;52.040;11.528;2023-05-07T13:56:51;15.50;61.40
40622;DHT22;26324;52.040;11.528;2023-05-07T13:59:18;15.40;62.10
40622;DHT22;26324;52.040;11.528;2023-05-07T14:01:45;15.50;60.10
40622;DHT22;26324;52.040;11.528;2023-05-07T14:04:13;15.70;60.10
40622;DHT22;26324;52.040;11.528;2023-05-07T14:06:40;15.90;59.00
40622;DHT22;26324;52.040;11.528;2023-05-07T14:09:07;15.80;58.30
40622;DHT22;26324;52.040;11.528;2023-05-07T14:11:35;15.70;59.20
40622;DHT22;26324;52.040;11.528;2023-05-07T14:14:02;15.40;59.50
40622;DHT22;26324;52.040;11.528;2023-05-07T14:16:29;15.20;60.90
40622;DHT22;26324;52.040;11.528;2023-05-07T14:18:57;15.00;61.60
40622;DHT22;26324;52.040;11.528;2023-05-07T14:21:25;15.00;61.30
40622;DHT22;26324;52.040;11.528;2023-05-07T14:23:52;15.10;61.70
40622;DHT22;26324;52.040;11.528;2023-05-07T14:26:20;15.00;60.80
40622;DHT22;26324;52.040;11.528;2023-05-07T14:28:47;15.00;61.70
40622;DHT22;26324;52.040;11.528;2023-05-07T14:31:16;15.10;61.50
40622;DHT22;26324;52.040;11.528;2023-05-07T14:33:43;15.50;61.10
40622;DHT22;26324;52.040;11.528;2023-05-07T14:36:10;15.60;60.00
40622;DHT22;26324;52.040;11.528;2023-05-07T14:38:38;15.50;60.80
40622;DHT22;26324;52.040;11.528;2023-05-07T14:41:05;15.20;61.80
40622;DHT22;26324;52.040;11.528;2023-05-07T14:43:32;15.40;61.90
40622;DHT22;26324;52.040;11.528;2023-05-07T14:46:00;15.60;61.30
40622;DHT22;26324;52.040;11.528;2023-05-07T14:48:27;16.10;60.20
40622;DHT22;26324;52.040;11.528;2023-05-07T14:50:55;16.30;58.10
40622;DHT22;26324;52.040;11.528;2023-05-07T14:53:23;16.10;58.10
40622;DHT22;26324;52.040;11.528;2023-05-07T14:55:50;16.00;58.30
40622;DHT22;26324;52.040;11.528;2023-05-07T14:58:18;15.70;59.70
40622;DHT22;26324;52.040;11.528;2023-05-07T15:00:45;15.50;60.10
40622;DHT22;26324;52.040;11.528;2023-05-07T15:03:12;15.50;60.70
40622;DHT22;26324;52.040;11.528;2023-05-07T15:05:42;15.50;60.20
40622;DHT22;26324;52.040;11.528;2023-05-07T15:08:10;15.40;60.80
40622;DHT22;26324;52.040;11.528;2023-05-07T15:10:38;15.60;62.00
40622;DHT22;26324;52.040;11.528;2023-05-07T15:13:09;15.60;60.20
40622;DHT22;26324;52.040;11.528;2023-05-07T15:15:42;15.50;60.20
40622;DHT22;26324;52.040;11.528;2023-05-07T15:18:13;15.40;60.90
40622;DHT22;26324;52.040;11.528;2023-05-07T15:20:40;15.10;60.30
40622;DHT22;26324;52.040;11.528;2023-05-07T15:23:08;15.10;61.60
40622;DHT22;26324;52.040;11.528;2023-05-07T15:25:45;14.90;61.70
40622;DHT22;26324;52.040;11.528;2023-05-07T15:28:16;14.90;62.10
40622;DHT22;26324;52.040;11.528;2023-05-07T15:30:43;14.80;62.30
40622;DHT22;26324;52.040;11.528;2023-05-07T15:33:11;14.60;62.80
40622;DHT22;26324;52.040;11.528;2023-05-07T15:35:38;14.80;63.00
40622;DHT22;26324;52.040;11.528;2023-05-07T15:38:05;14.60;62.60
40622;DHT22;26324;52.040;11.528;2023-05-07T15:40:32;15.10;63.20